Time;durP1;ratioP1;P1;durP2;ratioP2;P2;SDS_P1;SDS_P2;PMS_P1;PMS_P2;Temp;Humidity;BMP_temperature;BMP_pressure;BME280_temperature;BME280_humidity;BME280_pressure;Samples;Min_cycle;Max_cycle;Signal;HPM_P1;HPM_P2
2022/04/19 00:00:01;;;;;;;;;10.33;9.00;;;;;;;;5121922;27;45128;-75
2022/04/19 00:02:26;;;;;;;;;14.00;12.00;;;;;;;;5103154;27;45167;-76
2022/04/19 00:04:51;;;;;;;;;14.00;13.33;;;;;;;;5121813;27;45563;-75
2022/04/19 00:07:16;;;;;;;;;9.00;8.67;;;;;;;;5121693;27;46548;-75
2022/04/19 00:09:41;;;;;;;;;12.00;11.00;;;;;;;;5103071;27;45369;-75
2022/04/19 00:12:07;;;;;;;;;10.33;10.00;;;;;;;;5122005;27;45230;-74
2022/04/19 00:14:34;;;;;;;;;11.33;10.00;;;;;;;;5121590;27;45560;-75
2022/04/19 00:16:59;;;;;;;;;9.33;7.67;;;;;;;;5100880;27;45367;-74
2022/04/19 00:19:25;;;;;;;;;12.00;12.00;;;;;;;;5100672;27;45422;-74
2022/04/19 00:21:51;;;;;;;;;11.00;10.67;;;;;;;;5101054;27;45401;-75
2022/04/19 00:24:16;;;;;;;;;8.67;8.00;;;;;;;;5082283;27;46125;-75
2022/04/19 00:26:41;;;;;;;;;10.00;9.33;;;;;;;;5100902;27;45469;-75
2022/04/19 00:29:06;;;;;;;;;9.67;8.67;;;;;;;;5100311;27;45357;-75
2022/04/19 00:31:31;;;;;;;;;10.67;9.33;;;;;;;;5101128;27;45358;-75
2022/04/19 00:33:57;;;;;;;;;10.00;10.00;;;;;;;;5100287;27;45350;-75
2022/04/19 00:36:24;;;;;;;;;12.67;11.00;;;;;;;;5100651;27;45338;-75
2022/04/19 00:38:49;;;;;;;;;9.67;9.33;;;;;;;;5100752;27;45300;-75
2022/04/19 00:41:16;;;;;;;;;11.67;11.00;;;;;;;;5100719;27;45634;-75
2022/04/19 00:43:42;;;;;;;;;10.67;10.67;;;;;;;;5100520;27;45424;-74
2022/04/19 00:46:07;;;;;;;;;8.33;8.33;;;;;;;;5100613;27;45484;-75
2022/04/19 00:48:32;;;;;;;;;10.00;9.00;;;;;;;;5100374;27;45294;-74
2022/04/19 00:50:57;;;;;;;;;7.33;7.33;;;;;;;;5100704;27;45298;-75
2022/04/19 00:53:24;;;;;;;;;9.67;8.33;;;;;;;;5081912;27;46100;-75
2022/04/19 00:55:49;;;;;;;;;7.33;7.33;;;;;;;;5100447;27;45652;-75
2022/04/19 00:58:15;;;;;;;;;8.00;8.00;;;;;;;;5100412;27;45346;-74
2022/04/19 01:00:43;;;;;;;;;12.00;10.00;;;;;;;;5100530;27;45393;-75
2022/04/19 01:03:08;;;;;;;;;7.00;6.33;;;;;;;;5100104;27;45230;-75
2022/04/19 01:05:34;;;;;;;;;10.67;8.67;;;;;;;;5100160;27;45365;-75
2022/04/19 01:07:59;;;;;;;;;9.33;9.33;;;;;;;;5081756;27;45251;-75
2022/04/19 01:10:26;;;;;;;;;9.67;8.67;;;;;;;;5100399;27;45178;-75
2022/04/19 01:15:36;;;;;;;;;12.00;10.67;;;;;;;;5108829;27;45376;-75
2022/04/19 01:18:02;;;;;;;;;9.00;7.67;;;;;;;;5102026;27;46102;-75
2022/04/19 01:20:28;;;;;;;;;8.33;7.33;;;;;;;;5121033;27;45407;-75
2022/04/19 01:22:53;;;;;;;;;7.00;7.00;;;;;;;;5102214;27;46182;-75
2022/04/19 01:25:20;;;;;;;;;8.67;8.67;;;;;;;;5120604;27;45347;-75
2022/04/19 01:27:45;;;;;;;;;8.00;8.00;;;;;;;;5101982;27;45449;-75
2022/04/19 01:30:11;;;;;;;;;8.67;8.67;;;;;;;;5120683;27;45324;-75
2022/04/19 01:32:36;;;;;;;;;12.00;9.67;;;;;;;;5120198;27;45561;-75
2022/04/19 01:35:08;;;;;;;;;7.33;6.33;;;;;;;;5101863;27;47863;-75
2022/04/19 01:37:34;;;;;;;;;8.00;8.00;;;;;;;;5102056;27;45362;-75
2022/04/19 01:40:18;;;;;;;;;9.33;8.00;;;;;;;;5121168;27;45270;-75
2022/04/19 01:42:47;;;;;;;;;9.00;8.33;;;;;;;;5105537;27;46200;-75
2022/04/19 01:45:16;;;;;;;;;7.67;7.00;;;;;;;;5105296;27;47649;-75
2022/04/19 01:47:42;;;;;;;;;8.33;8.33;;;;;;;;5104951;27;45204;-75
2022/04/19 01:50:09;;;;;;;;;10.00;10.00;;;;;;;;5105424;27;45346;-75
2022/04/19 01:52:35;;;;;;;;;9.00;8.00;;;;;;;;5123503;27;46028;-75
2022/04/19 01:55:01;;;;;;;;;4.33;4.00;;;;;;;;5123890;27;45416;-75
2022/04/19 01:57:26;;;;;;;;;12.00;11.00;;;;;;;;5105270;27;45327;-74
2022/04/19 01:59:51;;;;;;;;;8.00;8.00;;;;;;;;5124049;27;45415;-74
2022/04/19 02:02:17;;;;;;;;;10.33;10.33;;;;;;;;5123811;27;45478;-75
2022/04/19 02:04:42;;;;;;;;;11.67;9.67;;;;;;;;5123604;27;45547;-75
2022/04/19 02:07:07;;;;;;;;;7.00;7.00;;;;;;;;5123703;27;45624;-75
2022/04/19 02:09:32;;;;;;;;;12.33;11.00;;;;;;;;5105141;27;45318;-75
2022/04/19 02:11:58;;;;;;;;;13.00;11.67;;;;;;;;5123664;27;45144;-75
2022/04/19 02:14:23;;;;;;;;;10.67;10.00;;;;;;;;5123489;27;45397;-75
2022/04/19 02:16:48;;;;;;;;;9.00;9.00;;;;;;;;5123394;27;45234;-76
2022/04/19 02:19:14;;;;;;;;;11.00;11.00;;;;;;;;5123613;27;45286;-75
2022/04/19 02:21:39;;;;;;;;;9.67;9.67;;;;;;;;5104880;27;46149;-76
2022/04/19 02:24:04;;;;;;;;;11.00;10.33;;;;;;;;5123455;27;46118;-76
2022/04/19 02:26:29;;;;;;;;;10.00;9.33;;;;;;;;5123340;27;45433;-76
2022/04/19 02:28:54;;;;;;;;;11.00;9.00;;;;;;;;5123722;27;45270;-75
2022/04/19 02:31:20;;;;;;;;;11.33;11.00;;;;;;;;5123354;27;45274;-75
2022/04/19 02:33:45;;;;;;;;;9.33;9.33;;;;;;;;5122980;27;45864;-75
2022/04/19 02:36:10;;;;;;;;;12.67;10.67;;;;;;;;5104891;27;45235;-75
2022/04/19 02:38:36;;;;;;;;;9.33;8.33;;;;;;;;5123226;27;45386;-75
2022/04/19 02:41:01;;;;;;;;;11.00;10.67;;;;;;;;5123364;27;45472;-75
2022/04/19 02:43:26;;;;;;;;;11.67;9.67;;;;;;;;5123139;27;46127;-76
2022/04/19 02:45:54;;;;;;;;;9.00;8.00;;;;;;;;5123222;27;45258;-75
2022/04/19 02:48:19;;;;;;;;;11.00;9.33;;;;;;;;5123074;27;45329;-75
2022/04/19 02:50:45;;;;;;;;;8.00;8.00;;;;;;;;5103771;27;47456;-75
2022/04/19 02:53:11;;;;;;;;;10.33;9.67;;;;;;;;5122922;27;45369;-76
2022/04/19 02:55:36;;;;;;;;;11.00;9.67;;;;;;;;5122933;27;45335;-76
2022/04/19 02:58:02;;;;;;;;;10.00;10.00;;;;;;;;5104601;27;45479;-75
2022/04/19 03:00:27;;;;;;;;;6.33;6.33;;;;;;;;5123109;27;45290;-76
2022/04/19 03:02:53;;;;;;;;;8.50;8.50;;;;;;;;5122617;27;45898;-75
2022/04/19 03:05:18;;;;;;;;;7.00;7.00;;;;;;;;5123014;27;45265;-75
2022/04/19 03:07:44;;;;;;;;;7.67;7.67;;;;;;;;5122760;27;45315;-75
2022/04/19 03:10:09;;;;;;;;;9.00;9.00;;;;;;;;5122730;27;45233;-75
2022/04/19 03:12:34;;;;;;;;;11.00;9.67;;;;;;;;5122542;27;45266;-75
2022/04/19 03:15:00;;;;;;;;;9.67;8.67;;;;;;;;5122463;27;45225;-75
2022/04/19 03:17:26;;;;;;;;;9.00;9.00;;;;;;;;5122729;27;45289;-76
2022/04/19 03:19:51;;;;;;;;;10.00;10.00;;;;;;;;5103870;27;47315;-75
2022/04/19 03:22:16;;;;;;;;;8.00;8.00;;;;;;;;5122308;27;45451;-76
2022/04/19 03:27:41;;;;;;;;;9.00;9.00;;;;;;;;5122423;27;45221;-75
2022/04/19 03:30:07;;;;;;;;;11.33;11.33;;;;;;;;5122511;27;45301;-75
2022/04/19 03:32:32;;;;;;;;;10.00;9.00;;;;;;;;5103369;27;47782;-75
2022/04/19 03:34:58;;;;;;;;;11.00;11.00;;;;;;;;5122502;27;45258;-76
2022/04/19 03:37:23;;;;;;;;;9.00;9.00;;;;;;;;5122340;27;45148;-75
2022/04/19 03:39:48;;;;;;;;;11.33;11.00;;;;;;;;5122244;27;45208;-75
2022/04/19 03:42:13;;;;;;;;;11.33;11.00;;;;;;;;5122235;27;45270;-75
2022/04/19 03:44:38;;;;;;;;;11.00;11.00;;;;;;;;5122246;27;45472;-75
2022/04/19 03:47:10;;;;;;;;;8.67;8.33;;;;;;;;5122414;27;45512;-75
2022/04/19 03:49:36;;;;;;;;;10.00;9.67;;;;;;;;5121738;27;45336;-75
2022/04/19 03:52:02;;;;;;;;;9.67;9.00;;;;;;;;5121505;27;45365;-75
2022/04/19 03:54:27;;;;;;;;;9.67;9.67;;;;;;;;5103272;27;45501;-76
2022/04/19 03:56:52;;;;;;;;;10.33;9.67;;;;;;;;5122212;27;45242;-75
2022/04/19 03:59:18;;;;;;;;;10.33;9.67;;;;;;;;5103354;27;46051;-75
2022/04/19 04:01:44;;;;;;;;;12.67;11.33;;;;;;;;5103251;27;47278;-76
2022/04/19 04:04:09;;;;;;;;;15.50;13.50;;;;;;;;5102073;27;45239;-76
2022/04/19 04:06:35;;;;;;;;;16.00;13.50;;;;;;;;5121835;27;45333;-76
2022/04/19 04:09:00;;;;;;;;;11.33;10.67;;;;;;;;5121896;27;45271;-75
2022/04/19 04:11:26;;;;;;;;;12.00;11.00;;;;;;;;5103265;27;48170;-77
2022/04/19 04:13:51;;;;;;;;;14.00;14.00;;;;;;;;5121804;27;45518;-77
2022/04/19 04:16:16;;;;;;;;;11.00;8.33;;;;;;;;5121709;27;45390;-77
2022/04/19 04:18:41;;;;;;;;;11.00;10.00;;;;;;;;5102818;27;46080;-75
2022/04/19 04:21:06;;;;;;;;;12.00;10.67;;;;;;;;5121467;27;46118;-75
2022/04/19 04:23:33;;;;;;;;;11.33;10.33;;;;;;;;5121457;27;45322;-76
2022/04/19 04:25:59;;;;;;;;;11.33;9.33;;;;;;;;5121744;27;45730;-76
2022/04/19 04:28:24;;;;;;;;;9.67;9.67;;;;;;;;5102547;27;46231;-76
2022/04/19 04:30:49;;;;;;;;;10.00;10.00;;;;;;;;5121402;27;45609;-76
2022/04/19 04:33:14;;;;;;;;;10.33;10.00;;;;;;;;5102531;27;45723;-76
2022/04/19 04:35:40;;;;;;;;;10.00;8.67;;;;;;;;5102961;27;45340;-76
2022/04/19 04:38:05;;;;;;;;;10.33;10.00;;;;;;;;5121333;27;45314;-76
2022/04/19 04:40:30;;;;;;;;;9.00;8.33;;;;;;;;5102613;27;48216;-76
2022/04/19 04:42:55;;;;;;;;;15.67;11.67;;;;;;;;5121404;27;45283;-76
2022/04/19 04:45:20;;;;;;;;;9.33;9.33;;;;;;;;5121569;27;45498;-76
2022/04/19 04:50:29;;;;;;;;;14.33;12.33;;;;;;;;5120886;27;45414;-76
2022/04/19 04:52:55;;;;;;;;;36.25;31.50;;;;;;;;5120945;27;45247;-76
2022/04/19 04:55:21;;;;;;;;;57.50;44.00;;;;;;;;5102720;27;45448;-77
2022/04/19 04:57:46;;;;;;;;;49.75;39.00;;;;;;;;5102326;27;46212;-76
2022/04/19 05:00:12;;;;;;;;;36.00;30.75;;;;;;;;5120820;27;46208;-77
2022/04/19 05:02:37;;;;;;;;;33.50;28.00;;;;;;;;5114301;27;45277;-76
2022/04/19 05:05:02;;;;;;;;;40.75;33.75;;;;;;;;5094589;27;45430;-76
2022/04/19 05:07:28;;;;;;;;;35.00;30.50;;;;;;;;5101061;27;47211;-78
2022/04/19 05:09:54;;;;;;;;;37.50;32.75;;;;;;;;5120274;27;45411;-76
2022/04/19 05:12:19;;;;;;;;;31.75;27.50;;;;;;;;5101632;27;45377;-75
2022/04/19 05:14:44;;;;;;;;;20.00;18.25;;;;;;;;5120208;27;45565;-75
2022/04/19 05:17:10;;;;;;;;;13.67;10.33;;;;;;;;5120452;27;45511;-77
2022/04/19 05:19:35;;;;;;;;;10.00;10.00;;;;;;;;5102016;27;47014;-76
2022/04/19 05:22:00;;;;;;;;;11.00;9.00;;;;;;;;5120647;27;45186;-76
2022/04/19 05:24:26;;;;;;;;;9.00;9.00;;;;;;;;5120178;27;45212;-76
2022/04/19 05:26:51;;;;;;;;;11.00;11.00;;;;;;;;5120409;27;45584;-76
2022/04/19 05:29:16;;;;;;;;;13.00;10.67;;;;;;;;5120113;27;46228;-76
2022/04/19 05:31:42;;;;;;;;;14.33;14.33;;;;;;;;5120543;27;45316;-76
2022/04/19 05:34:07;;;;;;;;;12.00;12.00;;;;;;;;5120233;27;45518;-73
2022/04/19 05:36:33;;;;;;;;;12.33;10.00;;;;;;;;5101799;27;46220;-74
2022/04/19 05:38:58;;;;;;;;;8.67;8.67;;;;;;;;5120420;27;45937;-74
2022/04/19 05:41:24;;;;;;;;;11.33;10.67;;;;;;;;5120326;27;45331;-76
2022/04/19 05:43:50;;;;;;;;;14.00;11.67;;;;;;;;5120538;27;45521;-75
2022/04/19 05:46:17;;;;;;;;;9.00;9.00;;;;;;;;5101934;27;45903;-76
2022/04/19 05:48:42;;;;;;;;;11.00;11.00;;;;;;;;5101598;27;48166;-76
2022/04/19 05:51:07;;;;;;;;;11.00;11.00;;;;;;;;5120278;27;45221;-75
2022/04/19 05:53:32;;;;;;;;;11.67;11.00;;;;;;;;5101511;27;45264;-77
2022/04/19 05:55:57;;;;;;;;;11.00;11.00;;;;;;;;5100771;27;46944;-76
2022/04/19 05:58:23;;;;;;;;;15.33;11.00;;;;;;;;5119729;27;45349;-75
2022/04/19 06:00:48;;;;;;;;;9.00;9.00;;;;;;;;5120268;27;45210;-76
2022/04/19 06:05:57;;;;;;;;;9.67;7.33;;;;;;;;5119684;27;45356;-80
2022/04/19 06:08:22;;;;;;;;;11.00;9.00;;;;;;;;5119771;27;45293;-79
2022/04/19 06:10:49;;;;;;;;;9.33;9.00;;;;;;;;5104100;27;45472;-75
2022/04/19 06:13:15;;;;;;;;;8.00;7.00;;;;;;;;5101994;27;45333;-75
2022/04/19 06:15:40;;;;;;;;;11.33;9.33;;;;;;;;5098844;27;45479;-75
2022/04/19 06:18:05;;;;;;;;;7.33;7.33;;;;;;;;5097617;27;47243;-74
2022/04/19 06:20:31;;;;;;;;;7.67;7.33;;;;;;;;5097836;27;45574;-74
2022/04/19 06:22:56;;;;;;;;;10.00;10.00;;;;;;;;5097693;27;45882;-75
2022/04/19 06:25:22;;;;;;;;;11.33;10.00;;;;;;;;5079127;27;45916;-75
2022/04/19 06:27:47;;;;;;;;;9.00;9.00;;;;;;;;5114719;27;46037;-75
2022/04/19 06:30:12;;;;;;;;;13.00;10.00;;;;;;;;5098661;27;45797;-76
2022/04/19 06:32:38;;;;;;;;;10.33;9.67;;;;;;;;5095392;27;45415;-75
2022/04/19 06:35:03;;;;;;;;;9.67;9.67;;;;;;;;5114203;27;45521;-75
2022/04/19 06:37:30;;;;;;;;;9.33;9.33;;;;;;;;5111120;27;45482;-76
2022/04/19 06:39:59;;;;;;;;;10.67;8.33;;;;;;;;5091411;27;45320;-75
2022/04/19 06:42:24;;;;;;;;;11.67;9.00;;;;;;;;5090318;27;45299;-75
2022/04/19 06:44:49;;;;;;;;;11.00;9.00;;;;;;;;5121393;27;46556;-72
2022/04/19 06:47:15;;;;;;;;;11.33;10.33;;;;;;;;5111006;27;45630;-73
2022/04/19 06:49:41;;;;;;;;;11.33;9.00;;;;;;;;5094635;27;45654;-75
2022/04/19 06:52:08;;;;;;;;;7.33;7.00;;;;;;;;5096479;27;45401;-74
2022/04/19 06:54:33;;;;;;;;;9.33;8.33;;;;;;;;5101289;27;45458;-74
2022/04/19 06:56:58;;;;;;;;;7.33;7.00;;;;;;;;5101732;27;46063;-75
2022/04/19 06:59:25;;;;;;;;;9.00;7.00;;;;;;;;5089393;27;45415;-74
2022/04/19 07:01:50;;;;;;;;;12.67;10.67;;;;;;;;5121142;27;45267;-75
2022/04/19 07:04:16;;;;;;;;;12.33;11.33;;;;;;;;5121765;27;45348;-75
2022/04/19 07:06:41;;;;;;;;;9.33;8.67;;;;;;;;5103676;27;47480;-75
2022/04/19 07:09:06;;;;;;;;;7.33;7.33;;;;;;;;5121908;27;45319;-75
2022/04/19 07:11:31;;;;;;;;;7.67;7.67;;;;;;;;5122062;27;45656;-76
2022/04/19 07:13:57;;;;;;;;;7.67;7.00;;;;;;;;5122843;27;45271;-75
2022/04/19 07:16:23;;;;;;;;;8.00;8.00;;;;;;;;5120929;27;45427;-76
2022/04/19 07:18:48;;;;;;;;;11.00;10.00;;;;;;;;5101010;27;45677;-75
2022/04/19 07:26:41;;;;;;;;;7.67;7.67;;;;;;;;5121397;27;45338;-76
2022/04/19 07:29:13;;;;;;;;;7.33;7.33;;;;;;;;5122224;27;45292;-75
2022/04/19 07:31:39;;;;;;;;;9.00;9.00;;;;;;;;5103997;27;45404;-75
2022/04/19 07:34:04;;;;;;;;;11.33;10.00;;;;;;;;5121904;27;45566;-76
2022/04/19 07:36:29;;;;;;;;;8.00;7.00;;;;;;;;5103653;27;46180;-77
2022/04/19 07:38:57;;;;;;;;;8.33;8.33;;;;;;;;5108548;27;45405;-75
2022/04/19 07:41:22;;;;;;;;;7.33;7.00;;;;;;;;5125004;27;45490;-75
2022/04/19 07:43:48;;;;;;;;;10.67;8.33;;;;;;;;5088528;27;45663;-75
2022/04/19 07:46:17;;;;;;;;;8.67;8.67;;;;;;;;5100946;27;45899;-74
2022/04/19 07:48:45;;;;;;;;;7.33;7.33;;;;;;;;5099783;27;45880;-75
2022/04/19 07:51:11;;;;;;;;;8.33;6.33;;;;;;;;5080833;27;45433;-76
2022/04/19 07:53:36;;;;;;;;;7.33;6.67;;;;;;;;5110314;27;45381;-73
2022/04/19 07:56:02;;;;;;;;;8.00;5.33;;;;;;;;5095316;27;47644;-74
2022/04/19 07:58:27;;;;;;;;;7.00;7.00;;;;;;;;5115630;27;45388;-75
2022/04/19 08:00:52;;;;;;;;;5.33;5.33;;;;;;;;5117279;27;45405;-75
2022/04/19 08:03:17;;;;;;;;;7.33;7.33;;;;;;;;5119076;27;45386;-75
2022/04/19 08:05:43;;;;;;;;;7.67;6.33;;;;;;;;5114884;27;46080;-74
2022/04/19 08:08:08;;;;;;;;;5.67;5.67;;;;;;;;5108088;27;45333;-74
2022/04/19 08:10:33;;;;;;;;;4.33;4.33;;;;;;;;5112845;27;45556;-75
2022/04/19 08:12:58;;;;;;;;;9.00;8.00;;;;;;;;5087590;27;46065;-76
2022/04/19 08:15:24;;;;;;;;;6.33;6.33;;;;;;;;5109933;27;45485;-76
2022/04/19 08:17:49;;;;;;;;;7.00;7.00;;;;;;;;5120872;27;45475;-76
2022/04/19 08:20:15;;;;;;;;;5.33;5.33;;;;;;;;5118297;27;45448;-76
2022/04/19 08:22:40;;;;;;;;;7.33;7.00;;;;;;;;5111450;27;45508;-75
2022/04/19 08:25:06;;;;;;;;;7.00;6.67;;;;;;;;5120671;27;47762;-74
2022/04/19 08:27:31;;;;;;;;;8.33;7.00;;;;;;;;5120397;27;45361;-76
2022/04/19 08:29:56;;;;;;;;;5.33;5.33;;;;;;;;5102104;27;45257;-76
2022/04/19 08:32:22;;;;;;;;;8.00;8.00;;;;;;;;5120781;27;45313;-74
2022/04/19 08:34:47;;;;;;;;;7.33;6.00;;;;;;;;5114182;27;45328;-74
2022/04/19 08:37:12;;;;;;;;;7.00;6.00;;;;;;;;5093625;27;46002;-75
2022/04/19 08:39:37;;;;;;;;;6.33;6.33;;;;;;;;5113317;27;45455;-73
2022/04/19 08:42:03;;;;;;;;;12.33;8.00;;;;;;;;5104511;27;45377;-74
2022/04/19 08:44:29;;;;;;;;;7.00;5.33;;;;;;;;5101857;27;45631;-75
2022/04/19 08:46:57;;;;;;;;;10.00;8.00;;;;;;;;5097456;27;45664;-73
2022/04/19 08:49:24;;;;;;;;;9.33;8.00;;;;;;;;5094677;27;45331;-75
2022/04/19 08:51:49;;;;;;;;;6.33;6.00;;;;;;;;5117787;27;45428;-73
2022/04/19 08:59:43;;;;;;;;;8.00;7.67;;;;;;;;5120211;27;45289;-75
2022/04/19 09:02:18;;;;;;;;;11.00;11.00;;;;;;;;5098184;27;46633;-73
2022/04/19 09:04:43;;;;;;;;;9.33;9.33;;;;;;;;5119420;27;45231;-75
2022/04/19 09:07:08;;;;;;;;;16.67;11.67;;;;;;;;5118708;27;45677;-73
2022/04/19 09:09:35;;;;;;;;;10.00;9.33;;;;;;;;5111034;27;45451;-74
2022/04/19 09:12:06;;;;;;;;;10.33;10.33;;;;;;;;5111116;27;45390;-74
2022/04/19 09:14:31;;;;;;;;;10.67;9.00;;;;;;;;5098531;27;48681;-74
2022/04/19 09:17:04;;;;;;;;;8.67;8.67;;;;;;;;5103283;27;45434;-73
2022/04/19 09:19:30;;;;;;;;;9.00;8.67;;;;;;;;5116980;27;45424;-74
2022/04/19 09:21:55;;;;;;;;;10.33;9.67;;;;;;;;5118116;27;45416;-75
2022/04/19 09:24:21;;;;;;;;;11.00;8.67;;;;;;;;5104132;27;45326;-75
2022/04/19 09:26:50;;;;;;;;;11.33;11.33;;;;;;;;5135995;27;45475;-74
2022/04/19 09:29:20;;;;;;;;;10.67;10.67;;;;;;;;5111604;27;45307;-73
2022/04/19 09:31:45;;;;;;;;;10.33;9.33;;;;;;;;5080740;27;45865;-74
2022/04/19 09:34:11;;;;;;;;;13.00;10.33;;;;;;;;5103573;27;45807;-73
2022/04/19 09:36:36;;;;;;;;;10.00;9.67;;;;;;;;5100892;27;45697;-76
2022/04/19 09:39:21;;;;;;;;;10.00;10.00;;;;;;;;5122235;27;45573;-73
2022/04/19 09:41:46;;;;;;;;;11.33;10.67;;;;;;;;5110021;27;45678;-74
2022/04/19 09:44:15;;;;;;;;;12.67;12.67;;;;;;;;5107999;27;45527;-73
2022/04/19 09:47:00;;;;;;;;;11.33;10.00;;;;;;;;5096814;27;45506;-74
2022/04/19 09:49:45;;;;;;;;;10.33;10.33;;;;;;;;5097024;27;45666;-74
2022/04/19 09:52:22;;;;;;;;;15.00;12.00;;;;;;;;5105593;27;45584;-75
2022/04/19 09:55:03;;;;;;;;;10.00;10.00;;;;;;;;5098453;27;47074;-73
2022/04/19 09:57:32;;;;;;;;;13.67;11.67;;;;;;;;5112749;27;45437;-74
2022/04/19 09:59:58;;;;;;;;;13.00;12.00;;;;;;;;5115005;27;46429;-73
2022/04/19 10:10:36;;;;;;;;;12.00;11.67;;;;;;;;5114327;27;45453;-74
2022/04/19 10:13:03;;;;;;;;;11.00;11.00;;;;;;;;5102964;27;45295;-75
2022/04/19 10:15:30;;;;;;;;;10.33;10.00;;;;;;;;5110806;27;46193;-75
2022/04/19 10:17:56;;;;;;;;;12.33;12.33;;;;;;;;5123465;27;45354;-75
2022/04/19 10:20:32;;;;;;;;;13.33;13.00;;;;;;;;5105047;27;45318;-74
2022/04/19 10:23:05;;;;;;;;;12.67;12.67;;;;;;;;5123526;27;45456;-76
2022/04/19 10:25:40;;;;;;;;;10.33;10.33;;;;;;;;5123165;27;46480;-76
2022/04/19 10:28:06;;;;;;;;;14.67;13.33;;;;;;;;5123321;27;45370;-76
2022/04/19 10:30:33;;;;;;;;;9.67;9.67;;;;;;;;5123495;27;45336;-76
2022/04/19 10:32:58;;;;;;;;;11.00;9.33;;;;;;;;5123141;27;45217;-75
2022/04/19 10:35:24;;;;;;;;;12.67;11.33;;;;;;;;5104506;27;47500;-74
2022/04/19 10:38:08;;;;;;;;;13.33;12.00;;;;;;;;5123136;27;45316;-74
2022/04/19 10:40:49;;;;;;;;;10.67;10.33;;;;;;;;5108927;27;45504;-75
2022/04/19 10:43:14;;;;;;;;;13.67;12.00;;;;;;;;5084300;27;46317;-75
2022/04/19 10:45:40;;;;;;;;;15.33;13.67;;;;;;;;5118675;27;46568;-75
2022/04/19 10:48:06;;;;;;;;;12.00;12.00;;;;;;;;5122453;27;45401;-74
2022/04/19 10:50:35;;;;;;;;;15.33;15.33;;;;;;;;5113818;27;45416;-74
2022/04/19 10:53:03;;;;;;;;;12.67;11.67;;;;;;;;5115992;27;45329;-75
2022/04/19 10:55:28;;;;;;;;;17.67;16.67;;;;;;;;5112463;27;45374;-74
2022/04/19 11:00:35;;;;;;;;;14.33;12.67;;;;;;;;5121032;27;45604;-75
2022/04/19 11:03:00;;;;;;;;;12.67;10.00;;;;;;;;5120996;27;45397;-74
2022/04/19 11:05:41;;;;;;;;;13.00;13.00;;;;;;;;5118744;27;45329;-73
2022/04/19 11:08:24;;;;;;;;;11.00;11.00;;;;;;;;5100591;27;45377;-76
2022/04/19 11:10:56;;;;;;;;;13.00;10.00;;;;;;;;5100637;27;45357;-74
2022/04/19 11:13:34;;;;;;;;;15.33;14.33;;;;;;;;5100206;27;45296;-74
2022/04/19 11:16:00;;;;;;;;;15.33;13.33;;;;;;;;5102305;27;46031;-75
2022/04/19 11:18:26;;;;;;;;;13.00;11.33;;;;;;;;5084367;27;45683;-75
2022/04/19 11:20:56;;;;;;;;;13.00;13.00;;;;;;;;5100040;27;45374;-75
2022/04/19 11:23:22;;;;;;;;;12.00;11.00;;;;;;;;5112148;27;45271;-74
2022/04/19 11:25:49;;;;;;;;;12.00;12.00;;;;;;;;5102658;27;47123;-75
2022/04/19 11:28:21;;;;;;;;;13.00;11.67;;;;;;;;5104799;27;45310;-75
2022/04/19 11:30:49;;;;;;;;;9.00;9.00;;;;;;;;5101523;27;45327;-76
2022/04/19 11:33:21;;;;;;;;;12.33;12.33;;;;;;;;5100802;27;45389;-75
2022/04/19 11:36:07;;;;;;;;;12.33;12.33;;;;;;;;5116803;27;46188;-75
2022/04/19 11:38:34;;;;;;;;;16.00;14.00;;;;;;;;5089191;27;45370;-75
2022/04/19 11:46:47;;;;;;;;;11.67;11.00;;;;;;;;5124626;27;45931;-75
2022/04/19 11:49:18;;;;;;;;;14.00;13.67;;;;;;;;5131971;27;45653;-75
2022/04/19 11:51:48;;;;;;;;;16.33;15.00;;;;;;;;5140783;27;45325;-75
2022/04/19 11:54:19;;;;;;;;;12.00;11.33;;;;;;;;5142300;27;45581;-75
2022/04/19 11:56:45;;;;;;;;;12.33;12.33;;;;;;;;5117724;27;47130;-74
2022/04/19 11:59:10;;;;;;;;;17.67;15.00;;;;;;;;5121752;27;45272;-75
2022/04/19 12:01:36;;;;;;;;;16.00;16.00;;;;;;;;5122190;27;45334;-75
2022/04/19 12:04:09;;;;;;;;;12.33;12.33;;;;;;;;5109783;27;45328;-74
2022/04/19 12:06:34;;;;;;;;;11.67;11.00;;;;;;;;5114076;27;46445;-75
2022/04/19 12:08:59;;;;;;;;;13.33;13.00;;;;;;;;5140243;27;45397;-74
2022/04/19 12:11:31;;;;;;;;;55.75;44.00;;;;;;;;5130932;27;45605;-74
2022/04/19 12:13:56;;;;;;;;;39.67;31.67;;;;;;;;5121552;27;45850;-74
2022/04/19 12:16:35;;;;;;;;;29.33;24.67;;;;;;;;5105060;27;47214;-74
2022/04/19 12:19:03;;;;;;;;;15.67;15.00;;;;;;;;5101854;27;45394;-75
2022/04/19 12:21:44;;;;;;;;;15.33;15.33;;;;;;;;5098214;27;45675;-74
2022/04/19 12:24:18;;;;;;;;;16.67;15.00;;;;;;;;5109161;27;45430;-74
2022/04/19 12:26:44;;;;;;;;;16.33;15.33;;;;;;;;5101249;27;47570;-75
2022/04/19 12:29:13;;;;;;;;;14.33;11.67;;;;;;;;5120067;27;45280;-74
2022/04/19 12:31:44;;;;;;;;;10.67;10.67;;;;;;;;5101735;27;45407;-74
2022/04/19 12:34:11;;;;;;;;;12.67;12.00;;;;;;;;5117949;27;45579;-74
2022/04/19 12:36:47;;;;;;;;;11.00;11.00;;;;;;;;5118295;27;45932;-73
2022/04/19 12:39:13;;;;;;;;;19.33;19.00;;;;;;;;5118812;27;45456;-73
2022/04/19 12:41:40;;;;;;;;;14.33;13.67;;;;;;;;5118910;27;45467;-72
2022/04/19 12:44:06;;;;;;;;;15.33;15.33;;;;;;;;5116382;27;45476;-72
2022/04/19 12:46:31;;;;;;;;;16.00;16.00;;;;;;;;5119942;27;45565;-72
2022/04/19 12:48:57;;;;;;;;;14.33;13.67;;;;;;;;5108101;27;45307;-73
2022/04/19 12:51:26;;;;;;;;;18.00;17.67;;;;;;;;5095484;27;45765;-73
2022/04/19 12:54:02;;;;;;;;;13.67;12.67;;;;;;;;5113725;27;45453;-73
2022/04/19 12:59:37;;;;;;;;;18.00;17.67;;;;;;;;5098474;27;45485;-72
2022/04/19 13:02:03;;;;;;;;;12.33;12.00;;;;;;;;5089579;27;45429;-73
2022/04/19 13:04:28;;;;;;;;;14.33;13.33;;;;;;;;5118643;27;45343;-72
2022/04/19 13:12:26;;;;;;;;;17.33;17.33;;;;;;;;5101869;27;45391;-72
2022/04/19 13:14:53;;;;;;;;;15.33;13.67;;;;;;;;5106606;27;45471;-73
2022/04/19 13:17:19;;;;;;;;;17.67;17.00;;;;;;;;5097227;27;47305;-72
2022/04/19 13:19:45;;;;;;;;;14.67;14.67;;;;;;;;5118495;27;45320;-73
2022/04/19 13:22:11;;;;;;;;;14.00;13.67;;;;;;;;5100257;27;45383;-73
2022/04/19 13:24:38;;;;;;;;;12.00;11.00;;;;;;;;5099016;27;45401;-72
2022/04/19 13:27:03;;;;;;;;;9.00;9.00;;;;;;;;5099238;27;45310;-72
2022/04/19 13:29:32;;;;;;;;;4.67;4.67;;;;;;;;5097183;27;45572;-73
2022/04/19 13:31:57;;;;;;;;;11.67;11.33;;;;;;;;5101232;27;45814;-72
2022/04/19 13:34:22;;;;;;;;;11.33;10.67;;;;;;;;5105489;27;45897;-72
2022/04/19 13:36:48;;;;;;;;;14.67;12.67;;;;;;;;5122492;27;45444;-73
2022/04/19 13:39:13;;;;;;;;;11.33;10.00;;;;;;;;5123832;27;45396;-72
2022/04/19 13:41:41;;;;;;;;;13.67;12.33;;;;;;;;5123356;27;45909;-73
2022/04/19 13:44:09;;;;;;;;;14.67;14.67;;;;;;;;5119078;27;45449;-72
2022/04/19 13:46:35;;;;;;;;;16.00;15.00;;;;;;;;5101277;27;45519;-72
2022/04/19 13:49:00;;;;;;;;;13.67;11.33;;;;;;;;5120911;27;45508;-73
2022/04/19 13:51:25;;;;;;;;;12.67;12.67;;;;;;;;5121781;27;45467;-73
2022/04/19 13:53:51;;;;;;;;;9.33;9.33;;;;;;;;5121343;27;45404;-72
2022/04/19 13:56:16;;;;;;;;;11.67;11.67;;;;;;;;5121611;27;46702;-72
2022/04/19 13:58:41;;;;;;;;;10.33;10.33;;;;;;;;5110117;27;45420;-73
2022/04/19 14:01:07;;;;;;;;;11.00;11.00;;;;;;;;5084495;27;45691;-72
2022/04/19 14:03:32;;;;;;;;;10.00;10.00;;;;;;;;5083918;27;45930;-72
2022/04/19 14:05:58;;;;;;;;;10.33;9.00;;;;;;;;5084559;27;46029;-73
2022/04/19 14:08:23;;;;;;;;;11.00;11.00;;;;;;;;5103729;27;45409;-72
2022/04/19 14:10:49;;;;;;;;;12.67;11.00;;;;;;;;5122883;27;45318;-73
2022/04/19 14:13:14;;;;;;;;;12.00;10.67;;;;;;;;5121827;27;45865;-73
2022/04/19 14:15:39;;;;;;;;;14.33;12.33;;;;;;;;5104085;27;48315;-73
2022/04/19 14:18:04;;;;;;;;;12.67;12.33;;;;;;;;5104741;27;45275;-73
2022/04/19 14:20:30;;;;;;;;;10.33;10.33;;;;;;;;5123261;27;45322;-73
2022/04/19 14:22:55;;;;;;;;;12.33;12.33;;;;;;;;5104371;27;46219;-73
2022/04/19 14:25:20;;;;;;;;;10.67;10.67;;;;;;;;5085826;27;46349;-72
2022/04/19 14:27:46;;;;;;;;;18.00;18.00;;;;;;;;5082838;27;45977;-72
2022/04/19 14:35:39;;;;;;;;;12.00;12.00;;;;;;;;5105186;27;45488;-72
2022/04/19 14:38:05;;;;;;;;;12.67;12.67;;;;;;;;5121320;27;45672;-73
2022/04/19 14:40:30;;;;;;;;;9.00;9.00;;;;;;;;5119144;27;45410;-73
2022/04/19 14:42:56;;;;;;;;;9.00;9.00;;;;;;;;5116166;27;45533;-72
2022/04/19 14:45:21;;;;;;;;;10.00;10.00;;;;;;;;5103093;27;48279;-73
2022/04/19 14:47:46;;;;;;;;;13.00;11.00;;;;;;;;5121442;27;45387;-73
2022/04/19 14:50:11;;;;;;;;;9.67;9.67;;;;;;;;5122395;27;45467;-72
2022/04/19 14:52:36;;;;;;;;;15.67;13.67;;;;;;;;5122525;27;45438;-72
2022/04/19 14:55:02;;;;;;;;;9.00;9.00;;;;;;;;5122645;27;45384;-73
2022/04/19 14:57:28;;;;;;;;;12.67;11.00;;;;;;;;5122092;27;45518;-73
2022/04/19 14:59:53;;;;;;;;;10.00;7.67;;;;;;;;5111775;27;45407;-72
2022/04/19 15:02:18;;;;;;;;;15.00;12.00;;;;;;;;5101583;27;45279;-73
2022/04/19 15:04:44;;;;;;;;;9.00;9.00;;;;;;;;5103780;27;45561;-72
2022/04/19 15:07:09;;;;;;;;;11.67;9.67;;;;;;;;5109513;27;45329;-73
2022/04/19 15:09:34;;;;;;;;;9.67;9.67;;;;;;;;5082748;27;45472;-73
2022/04/19 15:12:03;;;;;;;;;9.00;9.00;;;;;;;;5082606;27;47085;-74
2022/04/19 15:14:28;;;;;;;;;11.00;11.00;;;;;;;;5100968;27;46932;-72
2022/04/19 15:16:54;;;;;;;;;10.33;10.33;;;;;;;;5119840;27;45385;-72